createdAt,value
2022-08-01T00:00:58.176Z,74.56
2022-08-01T00:01:58.662Z,74.46
2022-08-01T00:02:59.058Z,75.16
2022-08-01T00:03:59.107Z,75.40
2022-08-01T00:04:59.412Z,75.50
2022-08-01T00:05:59.721Z,75.50
2022-08-01T00:07:00.013Z,75.20
2022-08-01T00:08:00.353Z,75.00
2022-08-01T00:09:00.630Z,75.10
2022-08-01T00:10:00.929Z,75.40
2022-08-01T00:11:02.872Z,75.40
2022-08-01T00:12:01.471Z,75.30
2022-08-01T00:13:01.789Z,75.40
2022-08-01T00:14:02.093Z,75.50
2022-08-01T00:15:02.380Z,75.63
2022-08-01T00:16:02.684Z,75.54
2022-08-01T00:17:07.268Z,75.74
2022-08-01T00:18:03.277Z,75.54
2022-08-01T00:19:03.571Z,74.80
2022-08-01T00:20:03.881Z,74.70
2022-08-01T00:21:04.218Z,74.10
2022-08-01T00:22:04.859Z,73.90
2022-08-01T00:23:04.832Z,73.76
2022-08-01T00:24:05.139Z,73.36
2022-08-01T00:25:05.443Z,73.56
2022-08-01T00:26:05.771Z,72.86
2022-08-01T00:27:06.065Z,73.26
2022-08-01T00:28:06.363Z,73.26
2022-08-01T00:29:11.636Z,72.96
2022-08-01T00:30:13.401Z,72.66
2022-08-01T00:31:08.313Z,72.86
2022-08-01T00:32:08.247Z,73.16
2022-08-01T00:33:07.772Z,73.16
2022-08-01T00:34:08.065Z,73.16
2022-08-01T00:35:08.359Z,72.83
2022-08-01T00:36:08.655Z,73.33
2022-08-01T00:37:08.964Z,73.13
2022-08-01T00:38:09.275Z,72.83
2022-08-01T00:39:09.570Z,72.83
2022-08-01T00:40:09.869Z,73.53
2022-08-01T00:41:10.168Z,73.36
2022-08-01T00:42:10.466Z,73.26
2022-08-01T00:43:11.309Z,73.13
2022-08-01T00:44:11.022Z,73.66
2022-08-01T00:45:11.302Z,73.96
2022-08-01T00:46:11.591Z,73.96
2022-08-01T00:47:11.907Z,74.37
2022-08-01T00:48:12.248Z,75.00
2022-08-01T00:49:12.476Z,74.60
2022-08-01T00:50:12.689Z,74.37
2022-08-01T00:51:12.983Z,74.26
2022-08-01T00:52:13.257Z,74.90
2022-08-01T00:53:18.740Z,75.00
2022-08-01T02:57:15.055Z,78.39
2022-08-01T02:58:15.373Z,78.39
2022-08-01T02:59:15.667Z,78.19
2022-08-01T03:00:15.930Z,78.39
2022-08-01T03:01:16.240Z,78.39
2022-08-01T03:02:16.452Z,78.39
2022-08-01T03:03:16.715Z,78.49
2022-08-01T03:04:17.004Z,78.39
2022-08-01T03:05:17.308Z,78.45
2022-08-01T03:06:17.651Z,78.05
2022-08-01T03:07:17.834Z,77.75
2022-08-01T03:08:18.066Z,77.55
2022-08-01T03:09:18.355Z,77.21
2022-08-01T03:10:18.659Z,77.25
2022-08-01T03:11:18.993Z,77.25
2022-08-01T03:12:19.287Z,77.35
2022-08-01T03:13:19.586Z,77.45
2022-08-01T03:14:19.884Z,77.35
2022-08-01T03:15:20.167Z,77.35
2022-08-01T03:16:20.493Z,78.15
2022-08-01T03:17:20.774Z,78.69
2022-08-01T03:18:21.075Z,79.39
2022-08-01T03:19:21.371Z,79.19
2022-08-01T03:20:21.680Z,79.39
2022-08-01T03:21:22.004Z,79.29
2022-08-01T03:22:22.292Z,78.49
2022-08-01T03:23:22.581Z,77.75
2022-08-01T03:24:23.857Z,77.75
2022-08-01T03:25:23.243Z,78.15
2022-08-01T03:26:23.526Z,78.29
2022-08-01T03:27:23.836Z,78.49
2022-08-01T03:28:24.129Z,78.49
2022-08-01T03:29:25.423Z,78.59
2022-08-01T03:30:24.671Z,78.49
2022-08-01T03:31:24.958Z,78.49
2022-08-01T03:32:25.273Z,78.49
2022-08-01T03:33:25.561Z,78.69
2022-08-01T03:34:25.875Z,78.89
2022-08-01T03:35:26.208Z,79.53
2022-08-01T03:36:26.502Z,79.13
2022-08-01T03:37:26.821Z,79.43
2022-08-01T03:38:27.115Z,79.43
2022-08-01T03:39:27.408Z,79.43
2022-08-01T03:40:27.696Z,79.13
2022-08-01T03:41:28.013Z,79.23
2022-08-01T03:42:28.354Z,79.09
2022-08-01T03:43:28.673Z,79.19
2022-08-01T03:44:28.971Z,79.29
2022-08-01T03:45:29.280Z,79.63
2022-08-01T03:46:29.564Z,79.83
2022-08-01T03:47:29.837Z,79.63
2022-08-01T03:48:30.165Z,79.83
2022-08-01T03:49:30.511Z,80.24
2022-08-01T03:50:30.697Z,80.98
2022-08-01T03:51:31.001Z,81.38
2022-08-01T03:52:31.269Z,81.78
2022-08-01T03:53:31.593Z,82.12
2022-08-01T03:54:31.921Z,82.42
2022-08-01T03:55:32.220Z,82.62
2022-08-01T03:56:32.524Z,82.52
2022-08-01T03:57:36.117Z,82.52
2022-08-01T03:58:33.156Z,82.62
2022-08-01T03:59:33.475Z,82.22
2022-08-01T04:00:33.794Z,82.72
2022-08-01T04:01:34.243Z,82.42
2022-08-01T04:02:34.361Z,82.62
2022-08-01T04:03:34.654Z,82.42
2022-08-01T04:04:35.957Z,83.06
2022-08-01T04:05:35.171Z,83.06
2022-08-01T04:06:35.479Z,82.97
2022-08-01T04:07:35.806Z,82.46
2022-08-01T04:08:36.101Z,81.41
2022-08-01T04:09:36.404Z,80.47
2022-08-01T04:10:36.709Z,79.57
2022-08-01T04:11:37.002Z,79.53
2022-08-01T04:12:37.333Z,79.13
2022-08-01T04:13:38.426Z,78.79
2022-08-01T04:14:37.853Z,78.69
2022-08-01T04:15:38.141Z,79.39
2022-08-01T04:16:38.451Z,79.73
2022-08-01T04:17:38.763Z,79.63
2022-08-01T04:18:39.062Z,79.63
2022-08-01T04:19:39.361Z,79.23
2022-08-01T04:20:39.654Z,79.23
2022-08-01T04:21:39.957Z,79.03
2022-08-01T04:22:40.292Z,78.79
2022-08-01T04:23:40.620Z,78.59
2022-08-01T04:24:40.917Z,78.59
2022-08-01T04:25:41.212Z,78.69
2022-08-01T04:26:41.501Z,78.89
2022-08-01T04:27:50.039Z,78.89
2022-08-01T04:28:43.131Z,78.69
2022-08-01T04:29:42.362Z,78.79
2022-08-01T04:30:42.665Z,78.39
2022-08-01T04:31:42.968Z,77.75
2022-08-01T04:32:43.288Z,77.15
2022-08-01T04:33:43.510Z,76.95
2022-08-01T04:34:43.803Z,76.61
2022-08-01T04:36:02.612Z,76.51
2022-08-01T04:36:45.416Z,76.21
2022-08-01T04:37:44.654Z,75.81
2022-08-01T04:38:44.932Z,75.91
2022-08-01T04:39:50.276Z,77.01
2022-08-01T04:40:46.558Z,77.15
2022-08-01T04:41:45.808Z,76.81
2022-08-01T04:42:46.091Z,76.61
2022-08-01T04:43:46.365Z,76.61
2022-08-01T04:44:46.678Z,77.05
2022-08-01T04:45:46.866Z,77.05
2022-08-01T04:46:47.164Z,77.25
2022-08-01T04:47:47.504Z,77.35
2022-08-01T04:48:47.828Z,77.55
2022-08-01T04:49:48.846Z,77.65
2022-08-01T04:50:48.329Z,77.45
2022-08-01T04:51:48.617Z,77.45
2022-08-01T04:52:48.956Z,77.45
2022-08-01T04:53:49.213Z,77.45
2022-08-01T04:54:49.508Z,77.35
2022-08-01T04:55:49.831Z,76.95
2022-08-01T04:56:51.425Z,77.15
2022-08-01T04:57:50.474Z,77.25
2022-08-01T04:58:50.767Z,77.15
2022-08-01T04:59:51.097Z,77.35
2022-08-01T05:00:51.500Z,77.45
2022-08-01T05:01:51.930Z,77.25
2022-08-01T05:02:51.918Z,76.95
2022-08-01T05:03:52.194Z,77.01
2022-08-01T05:04:52.518Z,76.81
2022-08-01T05:05:52.808Z,76.61
2022-08-01T05:06:53.090Z,76.31
2022-08-01T05:07:53.399Z,76.21
2022-08-01T05:08:53.698Z,76.01
2022-08-01T05:09:54.006Z,76.21
2022-08-01T05:10:54.310Z,76.65
2022-08-01T05:11:54.583Z,76.85
2022-08-01T05:12:54.893Z,76.54
2022-08-01T05:13:55.185Z,76.45
2022-08-01T05:14:55.526Z,76.31
2022-08-01T05:15:55.807Z,76.11
2022-08-01T05:16:56.091Z,75.91
2022-08-01T05:17:56.379Z,75.91
2022-08-01T05:18:56.686Z,75.71
2022-08-01T05:19:57.026Z,75.60
2022-08-01T05:20:57.313Z,75.60
2022-08-01T05:22:00.085Z,75.51
2022-08-01T05:22:57.929Z,75.10
2022-08-01T05:23:58.221Z,75.21
2022-08-01T05:24:58.515Z,75.21
2022-08-01T05:25:58.956Z,74.84
2022-08-01T05:26:59.066Z,74.94
2022-08-01T05:27:59.350Z,75.74
2022-08-01T05:28:59.688Z,75.54
2022-08-01T05:29:59.866Z,75.84
2022-08-01T05:31:00.170Z,76.08
2022-08-01T05:32:00.474Z,76.38
2022-08-01T05:33:00.782Z,76.48
2022-08-01T05:34:01.097Z,76.28
2022-08-01T05:35:01.394Z,75.58
2022-08-01T05:36:01.695Z,76.18
2022-08-01T05:37:01.997Z,76.38
2022-08-01T05:38:02.299Z,75.14
2022-08-01T05:39:02.650Z,75.45
2022-08-01T05:40:02.824Z,73.24
2022-08-01T05:41:03.095Z,73.64
2022-08-01T05:42:03.735Z,74.74
2022-08-01T05:43:03.727Z,73.44
2022-08-01T05:44:04.071Z,73.54
2022-08-01T05:45:04.329Z,72.50
2022-08-01T05:46:04.658Z,72.40
2022-08-01T05:47:04.966Z,73.50
2022-08-01T05:48:05.283Z,73.20
2022-08-01T05:49:05.652Z,71.70
2022-08-01T05:50:05.837Z,71.20
2022-08-01T05:51:06.167Z,70.36
2022-08-01T05:52:06.856Z,70.26
2022-08-01T05:53:06.754Z,70.26
2022-08-01T05:54:07.051Z,71.26
2022-08-01T05:55:07.360Z,72.27
2022-08-01T05:56:07.658Z,72.77
2022-08-01T05:57:07.993Z,73.33
2022-08-01T05:58:08.291Z,73.43
2022-08-01T05:59:08.545Z,72.43
2022-08-01T06:00:08.842Z,71.63
2022-08-01T06:01:09.153Z,71.80
2022-08-01T06:02:10.030Z,71.30
2022-08-01T06:03:09.756Z,71.30
2022-08-01T06:04:10.063Z,71.09
2022-08-01T06:05:13.287Z,71.26
2022-08-01T06:06:10.644Z,70.86
2022-08-01T06:07:10.928Z,70.36
2022-08-01T06:08:11.236Z,70.96
2022-08-01T06:09:11.530Z,70.16
2022-08-01T06:10:11.821Z,69.96
2022-08-01T06:11:13.424Z,70.06
2022-08-01T06:12:12.451Z,70.23
2022-08-01T06:13:12.790Z,68.62
2022-08-01T06:14:13.073Z,70.23
2022-08-01T06:15:13.357Z,69.82
2022-08-01T06:16:13.650Z,68.43
2022-08-01T06:17:13.939Z,68.79
2022-08-01T06:18:16.043Z,69.59
2022-08-01T06:19:14.561Z,67.79
2022-08-01T06:20:14.839Z,67.29
2022-08-01T06:21:15.173Z,66.19
2022-08-01T06:22:15.462Z,66.46
2022-08-01T06:23:32.504Z,67.16
2022-08-01T06:24:17.036Z,66.26
2022-08-01T06:25:20.691Z,66.06
2022-08-01T06:26:16.620Z,65.66
2022-08-01T06:27:22.147Z,64.96
2022-08-01T06:28:18.215Z,64.93
2022-08-01T06:29:17.455Z,64.83
2022-08-01T06:30:17.779Z,65.43
2022-08-01T06:31:18.083Z,66.03
2022-08-01T06:32:27.090Z,64.80
2022-08-01T06:33:19.662Z,63.80
2022-08-01T06:34:18.913Z,64.30
2022-08-01T06:35:19.231Z,63.80
2022-08-01T06:36:19.541Z,64.10
2022-08-01T06:37:19.845Z,63.40
2022-08-01T06:38:20.152Z,63.90
2022-08-01T06:39:20.456Z,64.50
2022-08-01T06:40:20.755Z,65.40
2022-08-01T06:41:21.047Z,65.80
2022-08-01T06:42:21.347Z,65.90
2022-08-01T06:43:21.666Z,65.70
2022-08-01T06:44:21.955Z,64.20
2022-08-01T06:45:22.287Z,64.20
2022-08-01T06:46:22.571Z,64.20
2022-08-01T06:47:22.854Z,64.80
2022-08-01T06:48:23.153Z,64.40
2022-08-01T06:49:23.568Z,64.40
2022-08-01T06:50:23.801Z,64.67
2022-08-01T06:51:25.099Z,64.77
2022-08-01T06:52:24.453Z,63.17
2022-08-01T06:53:24.736Z,63.87
2022-08-01T06:54:25.040Z,63.27
2022-08-01T06:55:25.367Z,64.24
2022-08-01T06:56:25.648Z,62.84
2022-08-01T06:57:25.940Z,64.24
2022-08-01T06:58:31.672Z,64.14
2022-08-01T06:59:27.563Z,64.74
2022-08-01T07:00:26.918Z,65.04
2022-08-01T07:01:27.161Z,64.04
2022-08-01T07:02:27.373Z,64.41
2022-08-01T07:03:27.820Z,64.31
2022-08-01T07:04:28.948Z,63.81
2022-08-01T07:05:28.198Z,64.01
2022-08-01T07:06:28.503Z,64.61
2022-08-01T07:07:28.840Z,63.84
2022-08-01T07:08:29.023Z,64.24
2022-08-01T07:09:29.311Z,64.44
2022-08-01T07:10:29.605Z,65.17
2022-08-01T07:11:29.909Z,65.14
2022-08-01T07:12:30.202Z,65.23
2022-08-01T07:13:41.078Z,65.53
2022-08-01T07:14:31.767Z,64.74
2022-08-01T07:15:31.038Z,65.44
2022-08-01T07:16:31.330Z,64.04
2022-08-01T07:17:31.634Z,64.44
2022-08-01T07:18:32.006Z,64.64
2022-08-01T07:19:32.196Z,63.94
2022-08-01T07:20:37.991Z,64.14
2022-08-01T07:21:40.329Z,64.84
2022-08-01T07:22:34.054Z,64.14
2022-08-01T07:23:36.580Z,64.31
2022-08-01T07:24:33.597Z,64.84
2022-08-01T07:25:33.896Z,63.91
2022-08-01T07:26:34.196Z,65.31
2022-08-01T07:27:34.530Z,65.50
2022-08-01T07:28:34.828Z,67.40
2022-08-01T07:29:36.121Z,66.60
2022-08-01T07:30:35.345Z,68.49
2022-08-01T07:31:35.648Z,67.60
2022-08-01T07:32:35.976Z,67.30
2022-08-01T07:33:47.620Z,67.30
2022-08-01T07:34:37.572Z,66.20
2022-08-01T07:35:36.917Z,66.50
2022-08-01T07:36:37.215Z,65.91
2022-08-01T07:37:46.164Z,67.70
2022-08-01T07:38:38.821Z,66.70
2022-08-01T07:39:38.177Z,66.80
2022-08-01T07:40:38.471Z,67.17
2022-08-01T07:41:53.570Z,67.07
2022-08-01T07:42:40.078Z,67.47
2022-08-01T07:43:39.331Z,67.07
2022-08-01T07:44:39.676Z,67.17
2022-08-01T07:45:39.848Z,67.66
2022-08-01T07:46:41.170Z,67.66
2022-08-01T07:47:40.416Z,66.97
2022-08-01T07:48:40.708Z,67.17
2022-08-01T07:49:41.317Z,67.77
2022-08-01T07:50:41.346Z,66.10
2022-08-01T07:51:41.642Z,67.50
2022-08-01T07:52:41.944Z,67.66
2022-08-01T07:53:42.217Z,68.76
2022-08-01T07:54:42.548Z,67.77
2022-08-01T07:55:46.699Z,67.17
2022-08-01T07:56:43.169Z,67.54
2022-08-01T07:57:43.511Z,66.94
2022-08-01T07:58:43.817Z,65.74
2022-08-01T07:59:44.159Z,66.53
2022-08-01T08:00:44.481Z,65.57
2022-08-01T08:01:44.695Z,67.77
2022-08-01T08:02:44.949Z,66.74
2022-08-01T08:03:45.272Z,66.64
2022-08-01T08:04:48.909Z,65.34
2022-08-01T08:05:57.929Z,64.34
2022-08-01T08:06:47.070Z,64.84
2022-08-01T08:07:46.321Z,64.04
2022-08-01T08:08:46.630Z,64.34
2022-08-01T08:09:50.954Z,63.15
2022-08-01T08:10:47.180Z,64.64
2022-08-01T08:11:48.345Z,63.85
2022-08-01T08:12:47.792Z,63.75
2022-08-01T08:13:48.127Z,63.85
2022-08-01T08:14:48.420Z,63.25
2022-08-01T08:15:48.767Z,64.84
2022-08-01T08:16:49.023Z,65.64
2022-08-01T08:17:55.028Z,66.04
2022-08-01T08:18:50.643Z,66.83
2022-08-01T08:19:50.831Z,63.15
2022-08-01T08:20:50.273Z,62.75
2022-08-01T08:21:50.480Z,63.32
2022-08-01T08:22:50.793Z,63.22
2022-08-01T08:23:51.107Z,64.51
2022-08-01T08:24:51.443Z,63.82
2022-08-01T08:25:51.744Z,62.62
2022-08-01T08:26:52.296Z,61.43
2022-08-01T08:27:52.377Z,62.52
2022-08-01T08:28:52.711Z,63.92
2022-08-01T08:29:53.009Z,63.02
2022-08-01T08:30:53.303Z,61.23
2022-08-01T08:31:53.615Z,63.09
2022-08-01T08:32:53.931Z,61.90
2022-08-01T08:33:54.224Z,62.79
2022-08-01T08:34:54.527Z,63.29
2022-08-01T08:35:56.625Z,63.39
2022-08-01T08:36:55.163Z,63.19
2022-08-01T08:37:56.064Z,62.69
2022-08-01T08:38:55.736Z,62.89
2022-08-01T08:39:56.035Z,62.59
2022-08-01T08:40:56.385Z,63.09
2022-08-01T08:41:56.561Z,63.26
2022-08-01T08:42:56.860Z,62.69
2022-08-01T08:43:57.201Z,62.89
2022-08-01T08:44:57.376Z,62.69
2022-08-01T08:46:00.138Z,63.49
2022-08-01T08:46:57.984Z,62.40
2022-08-01T08:47:58.299Z,62.10
2022-08-01T08:48:58.629Z,62.10
2022-08-01T08:49:58.855Z,61.90
2022-08-01T08:50:59.176Z,61.60
2022-08-01T08:51:59.495Z,61.99
2022-08-01T08:52:59.778Z,60.47
2022-08-01T08:54:00.090Z,61.07
2022-08-01T08:55:00.376Z,62.16
2022-08-01T08:56:00.696Z,61.67
2022-08-01T08:57:01.010Z,61.17
2022-08-01T08:58:01.312Z,61.07
2022-08-01T08:59:01.620Z,61.96
2022-08-01T09:00:01.941Z,61.17
2022-08-01T09:01:02.224Z,60.17
2022-08-01T09:02:02.518Z,61.04
2022-08-01T09:03:02.835Z,59.55
2022-08-01T09:04:03.094Z,60.74
2022-08-01T09:05:03.440Z,61.34
2022-08-01T09:06:03.621Z,60.42
2022-08-01T09:07:03.905Z,60.82
2022-08-01T09:08:04.203Z,60.82
2022-08-01T09:09:04.491Z,61.51
2022-08-01T09:10:04.785Z,61.28
2022-08-01T09:11:05.079Z,59.59
2022-08-01T09:12:05.485Z,59.89
2022-08-01T09:13:05.716Z,60.75
2022-08-01T09:14:09.848Z,59.86
2022-08-01T09:15:06.339Z,61.65
2022-08-01T09:16:06.669Z,59.34
2022-08-01T09:17:06.968Z,58.84
2022-08-01T09:18:07.255Z,59.74
2022-08-01T09:19:07.554Z,57.62
2022-08-01T09:20:08.849Z,57.23
2022-08-01T09:21:08.120Z,57.72
2022-08-01T09:22:08.939Z,56.85
2022-08-01T09:23:08.687Z,58.44
2022-08-01T09:24:08.990Z,56.85
2022-08-01T09:25:09.332Z,58.54
2022-08-01T09:26:09.624Z,57.92
2022-08-01T09:27:09.967Z,59.11
2022-08-01T09:28:10.281Z,57.50
2022-08-01T09:29:10.625Z,58.78
2022-08-01T09:30:11.382Z,57.29
2022-08-01T09:31:11.156Z,56.48
2022-08-01T09:32:14.133Z,56.77
2022-08-01T09:33:21.853Z,56.57
2022-08-01T09:34:13.509Z,56.05
2022-08-01T09:35:12.300Z,56.74
2022-08-01T09:36:13.258Z,55.66
2022-08-01T09:37:12.760Z,54.69
2022-08-01T09:38:13.080Z,55.58
2022-08-01T09:39:13.262Z,55.68
2022-08-01T09:40:13.530Z,57.37
2022-08-01T09:41:14.294Z,56.35
2022-08-01T09:42:14.137Z,55.16
2022-08-01T09:43:14.836Z,54.86
2022-08-01T09:44:14.685Z,55.76
2022-08-01T09:45:23.334Z,54.77
2022-08-01T09:46:16.238Z,54.60
2022-08-01T09:47:15.846Z,54.77
2022-08-01T09:48:15.823Z,55.46
2022-08-01T09:49:16.203Z,53.88
2022-08-01T09:50:16.420Z,54.67
2022-08-01T09:51:58.578Z,53.78
2022-08-01T09:52:18.031Z,55.16
2022-08-01T09:53:30.429Z,55.43
2022-08-01T09:54:18.570Z,54.71
2022-08-01T09:55:17.808Z,53.63
2022-08-01T09:56:18.116Z,52.93
2022-08-01T09:57:18.420Z,51.52
2022-08-01T09:58:18.733Z,51.42
2022-08-01T09:59:19.310Z,52.01
2022-08-01T10:00:43.919Z,51.79
2022-08-01T10:01:20.480Z,52.58
2022-08-01T10:02:19.731Z,49.13
2022-08-01T10:03:20.135Z,48.73
2022-08-01T10:04:20.355Z,50.21
2022-08-01T10:05:21.347Z,50.51
2022-08-01T10:06:20.909Z,50.01
2022-08-01T10:07:21.221Z,49.82
2022-08-01T10:08:23.160Z,50.81
2022-08-01T10:09:21.801Z,48.83
2022-08-01T10:10:22.104Z,48.24
2022-08-01T10:11:23.391Z,49.89
2022-08-01T10:12:23.764Z,49.27
2022-08-01T10:13:22.996Z,46.98
2022-08-01T10:14:23.274Z,44.81
2022-08-01T10:15:23.552Z,45.67
2022-08-01T10:16:24.853Z,46.26
2022-08-01T10:17:24.114Z,46.04
2022-08-01T10:18:26.217Z,44.35
2022-08-01T10:19:24.737Z,44.92
2022-08-01T10:20:30.270Z,45.71
2022-08-01T10:21:47.681Z,46.30
2022-08-01T10:22:26.685Z,44.31
2022-08-01T10:23:40.071Z,43.91
2022-08-01T10:24:29.058Z,43.89
2022-08-01T10:25:42.028Z,44.66
2022-08-01T10:26:28.711Z,43.60
2022-08-01T10:27:39.405Z,42.89
2022-08-01T10:28:28.400Z,43.18
2022-08-01T10:30:00.147Z,43.97
2022-08-01T10:30:28.978Z,43.36
2022-08-01T10:31:32.058Z,40.90
2022-08-01T10:32:32.481Z,42.77
2022-08-01T10:33:50.353Z,42.08
2022-08-01T10:34:30.217Z,43.33
2022-08-01T10:35:47.297Z,40.00
2022-08-01T10:36:31.550Z,41.56
2022-08-01T10:37:30.079Z,41.55
2022-08-01T10:38:30.401Z,42.43
2022-08-01T10:39:30.698Z,42.43
2022-08-01T10:40:31.335Z,40.56
2022-08-01T10:41:31.209Z,43.00
2022-08-01T10:42:31.524Z,40.72
2022-08-01T10:43:31.831Z,41.31
2022-08-01T10:44:32.098Z,41.02
2022-08-01T10:45:32.507Z,42.19
2022-08-01T10:46:32.723Z,42.68
2022-08-01T10:47:49.949Z,42.86
2022-08-01T10:48:35.707Z,41.76
2022-08-01T10:49:33.711Z,41.56
2022-08-01T10:50:33.982Z,41.64
2022-08-01T10:51:52.625Z,41.94
2022-08-01T10:52:39.584Z,41.55
2022-08-01T10:53:42.809Z,41.64
2022-08-01T10:54:36.079Z,41.94
2022-08-01T10:55:35.335Z,40.37
2022-08-01T10:56:35.657Z,41.37
2022-08-01T10:57:35.975Z,41.08
2022-08-01T10:58:42.302Z,41.08
2022-08-01T10:59:50.093Z,40.68
2022-08-01T11:00:37.860Z,41.58
2022-08-01T11:01:37.867Z,39.41
2022-08-01T11:02:37.331Z,41.58
2022-08-01T11:03:55.996Z,41.76
2022-08-01T11:04:39.020Z,41.84
2022-08-01T11:05:38.248Z,39.66
2022-08-01T11:06:39.061Z,39.19
2022-08-01T11:07:38.790Z,40.29
2022-08-01T11:08:39.078Z,40.27
2022-08-01T11:09:40.328Z,40.01
2022-08-01T11:10:40.562Z,41.29
2022-08-01T11:11:39.938Z,40.55
2022-08-01T11:12:40.160Z,40.98
2022-08-01T11:13:40.379Z,42.75
2022-08-01T11:14:55.622Z,43.51
2022-08-01T11:15:50.317Z,43.57
2022-08-01T11:16:42.347Z,40.70
2022-08-01T11:17:42.151Z,42.08
2022-08-01T11:18:41.937Z,42.66
2022-08-01T11:19:42.150Z,41.88
2022-08-01T11:20:42.558Z,42.05
2022-08-01T11:21:58.094Z,40.90
2022-08-01T11:22:44.034Z,41.33
2022-08-01T11:23:43.270Z,41.17
2022-08-01T11:24:43.543Z,42.65
2022-08-01T11:26:05.707Z,42.28
2022-08-01T11:26:45.102Z,42.38
2022-08-01T11:27:44.403Z,43.33
2022-08-01T11:29:10.822Z,43.49
2022-08-01T11:29:46.086Z,41.92
2022-08-01T11:30:45.335Z,41.71
2022-08-01T11:31:46.292Z,42.19
2022-08-01T11:33:10.436Z,41.21
2022-08-01T11:33:47.265Z,40.82
2022-08-01T11:34:50.169Z,41.94
2022-08-01T11:35:46.656Z,40.45
2022-08-01T11:37:03.261Z,42.00
2022-08-01T11:37:48.224Z,40.53
2022-08-01T11:38:47.636Z,41.11
2022-08-01T11:39:47.844Z,41.31
2022-08-01T11:40:48.244Z,40.43
2022-08-01T11:41:48.321Z,42.68
2022-08-01T11:42:48.660Z,42.76
2022-08-01T11:43:48.960Z,39.90
2022-08-01T11:44:50.211Z,39.01
2022-08-01T11:45:50.648Z,39.45
2022-08-01T11:46:49.965Z,41.51
2022-08-01T11:47:50.268Z,40.92
2022-08-01T11:48:50.531Z,40.94
2022-08-01T11:49:50.798Z,41.94
2022-08-01T11:50:51.111Z,42.61
2022-08-01T11:51:51.407Z,42.71
2022-08-01T11:52:51.645Z,40.53
2022-08-01T11:53:51.898Z,40.61
2022-08-01T11:54:52.207Z,42.03
2022-08-01T11:55:53.530Z,40.55
2022-08-01T11:56:52.759Z,39.54
2022-08-01T11:57:53.056Z,37.57
2022-08-01T11:58:53.355Z,39.43
2022-08-01T12:00:03.599Z,38.65
2022-08-01T12:00:55.011Z,39.49
2022-08-01T12:01:54.343Z,37.83
2022-08-01T12:02:54.742Z,36.93
2022-08-01T12:03:54.994Z,37.70
2022-08-01T12:04:55.313Z,36.28
2022-08-01T12:05:55.632Z,38.06
2022-08-01T12:06:55.935Z,37.27
2022-08-01T12:07:56.246Z,37.37
2022-08-01T12:08:56.563Z,37.35
2022-08-01T12:09:56.861Z,36.85
2022-08-01T12:11:02.146Z,38.49
2022-08-01T12:11:58.462Z,37.60
2022-08-01T12:12:57.826Z,36.21
2022-08-01T12:13:58.132Z,36.60
2022-08-01T12:14:58.420Z,36.00
2022-08-01T12:15:58.734Z,34.83
2022-08-01T12:16:59.023Z,35.69
2022-08-01T12:18:00.005Z,35.43
2022-08-01T12:18:59.553Z,35.75
2022-08-01T12:19:59.846Z,35.97
2022-08-01T12:21:00.149Z,37.08
2022-08-01T12:22:00.439Z,38.45
2022-08-01T12:23:00.757Z,37.21
2022-08-01T12:24:01.082Z,37.88
2022-08-01T12:25:01.369Z,36.90
2022-08-01T12:26:01.675Z,38.41
2022-08-01T12:27:01.962Z,38.13
2022-08-01T12:28:02.295Z,37.63
2022-08-01T12:29:02.634Z,37.21
2022-08-01T12:30:02.941Z,38.35
2022-08-01T12:31:03.241Z,36.65
2022-08-01T12:32:03.550Z,37.62
2022-08-01T12:33:03.839Z,35.85
2022-08-01T12:34:04.174Z,37.21
2022-08-01T12:35:04.464Z,37.48
2022-08-01T12:36:04.729Z,34.77
2022-08-01T12:37:05.457Z,35.30
2022-08-01T12:38:05.316Z,35.89
2022-08-01T12:39:05.619Z,36.38
2022-08-01T12:40:05.914Z,38.22
2022-08-01T12:41:06.192Z,37.91
2022-08-01T12:42:06.501Z,34.96
2022-08-01T12:43:06.800Z,36.82
2022-08-01T12:44:07.093Z,37.01
2022-08-01T12:45:07.399Z,37.21
2022-08-01T12:46:07.726Z,35.35
2022-08-01T12:47:08.520Z,35.27
2022-08-01T12:48:08.244Z,35.19
2022-08-01T12:49:08.593Z,35.89
2022-08-01T12:50:08.854Z,36.88
2022-08-01T12:51:09.067Z,38.55
2022-08-01T12:52:13.215Z,37.95
2022-08-01T12:53:09.704Z,36.08
2022-08-01T12:54:11.025Z,38.81
2022-08-01T12:55:10.246Z,37.81
2022-08-01T12:56:10.727Z,37.11
2022-08-01T12:57:10.848Z,35.89
2022-08-01T12:58:15.911Z,37.65
2022-08-01T12:59:12.438Z,36.88
2022-08-01T13:00:12.535Z,36.71
2022-08-01T13:01:12.560Z,37.41
2022-08-01T13:02:12.345Z,38.39
2022-08-01T13:03:12.624Z,37.71
2022-08-01T13:04:12.958Z,37.61
2022-08-01T13:05:13.256Z,37.04
2022-08-01T13:06:13.760Z,38.60
2022-08-01T13:07:13.864Z,39.09
2022-08-01T13:08:14.137Z,39.00
2022-08-01T13:09:14.467Z,39.98
2022-08-01T13:10:14.751Z,41.15
2022-08-01T13:11:15.706Z,39.78
2022-08-01T13:12:15.376Z,40.35
2022-08-01T13:13:27.800Z,38.86
2022-08-01T13:14:17.022Z,38.92
2022-08-01T13:15:16.257Z,38.63
2022-08-01T13:16:27.885Z,37.54
2022-08-01T13:17:17.847Z,36.67
2022-08-01T13:18:17.143Z,37.96
2022-08-01T13:19:17.325Z,38.94
2022-08-01T13:20:17.548Z,39.02
2022-08-01T13:21:17.851Z,37.06
2022-08-01T13:22:18.141Z,37.75
2022-08-01T13:23:21.440Z,37.83
2022-08-01T13:24:19.821Z,38.90
2022-08-01T13:25:22.607Z,36.94
2022-08-01T13:26:19.341Z,37.47
2022-08-01T13:27:19.607Z,38.28
2022-08-01T13:28:19.932Z,40.43
2022-08-01T13:29:20.252Z,38.57
2022-08-01T13:30:20.541Z,37.57
2022-08-01T13:31:20.827Z,37.55
2022-08-01T13:32:28.499Z,39.33
2022-08-01T13:33:22.422Z,40.09
2022-08-01T13:34:21.678Z,39.20
2022-08-01T13:35:21.971Z,39.08
2022-08-01T13:36:28.124Z,39.37
2022-08-01T13:37:23.581Z,39.16
2022-08-01T13:38:22.812Z,37.50
2022-08-01T13:39:23.159Z,37.67
2022-08-01T13:40:23.480Z,37.57
2022-08-01T13:41:23.783Z,36.58
2022-08-01T13:42:24.086Z,36.88
2022-08-01T13:43:24.360Z,36.10
2022-08-01T13:44:24.662Z,35.53
2022-08-01T13:45:26.549Z,35.43
2022-08-01T13:46:25.264Z,37.30
2022-08-01T13:47:31.713Z,36.82
2022-08-01T13:48:26.824Z,37.32
2022-08-01T13:49:26.246Z,37.43
2022-08-01T13:50:27.482Z,37.12
2022-08-01T13:51:26.712Z,37.99
2022-08-01T13:52:27.008Z,35.56
2022-08-01T13:53:27.295Z,37.52
2022-08-01T13:54:27.568Z,37.32
2022-08-01T13:55:34.480Z,37.02
2022-08-01T13:56:29.178Z,37.32
2022-08-01T13:57:36.677Z,37.22
2022-08-01T13:58:29.714Z,36.83
2022-08-01T13:59:28.949Z,36.43
2022-08-01T14:00:29.263Z,36.31
2022-08-01T14:01:34.007Z,37.09
2022-08-01T14:02:30.850Z,36.58
2022-08-01T14:03:33.828Z,36.19
2022-08-01T14:04:30.510Z,36.15
2022-08-01T14:05:30.841Z,37.71
2022-08-01T14:06:31.140Z,36.54
2022-08-01T14:07:31.461Z,37.91
2022-08-01T14:08:31.775Z,38.57
2022-08-01T14:09:32.230Z,39.33
2022-08-01T14:10:32.435Z,39.14
2022-08-01T14:11:37.111Z,38.18
2022-08-01T14:12:33.191Z,37.50
2022-08-01T14:13:36.632Z,38.45
2022-08-01T14:14:33.504Z,35.63
2022-08-01T14:15:39.062Z,38.18
2022-08-01T14:16:35.114Z,39.45
2022-08-01T14:17:34.410Z,39.28
2022-08-01T14:18:34.743Z,39.16
2022-08-01T14:19:37.473Z,39.33
2022-08-01T14:20:35.310Z,38.53
2022-08-01T14:21:35.603Z,35.92
2022-08-01T14:22:35.908Z,35.53
2022-08-01T14:23:36.216Z,37.85
2022-08-01T14:24:36.525Z,36.96
2022-08-01T14:26:03.347Z,37.31
2022-08-01T14:26:38.101Z,35.93
2022-08-01T14:27:37.529Z,36.20
2022-08-01T14:28:37.641Z,35.21
2022-08-01T14:30:01.083Z,35.71
2022-08-01T14:30:39.220Z,37.13
2022-08-01T14:31:38.458Z,38.69
2022-08-01T14:32:38.812Z,37.39
2022-08-01T14:33:39.111Z,37.66
2022-08-01T14:34:39.415Z,35.81
2022-08-01T14:36:01.486Z,37.68
2022-08-01T14:36:41.026Z,35.70
2022-08-01T14:37:40.270Z,36.16
2022-08-01T14:38:40.609Z,35.74
2022-08-01T14:39:40.914Z,35.35
2022-08-01T14:40:42.198Z,35.24
2022-08-01T14:41:41.460Z,36.00
2022-08-01T14:42:41.747Z,34.27
2022-08-01T14:43:42.086Z,35.33
2022-08-01T14:44:45.953Z,34.44
2022-08-01T14:45:43.679Z,34.14
2022-08-01T14:46:57.708Z,34.14
2022-08-01T14:47:44.227Z,34.23
2022-08-01T14:48:43.447Z,35.11
2022-08-01T14:49:45.597Z,33.94
2022-08-01T14:50:44.009Z,35.09
2022-08-01T14:51:45.740Z,34.62
2022-08-01T14:52:44.680Z,34.64
2022-08-01T14:53:46.703Z,34.66
2022-08-01T14:54:46.204Z,34.69
2022-08-01T14:55:45.432Z,34.38
2022-08-01T14:56:45.843Z,34.27
2022-08-01T14:57:45.978Z,33.94
2022-08-01T14:58:46.305Z,31.60
2022-08-01T14:59:46.601Z,32.26